createdAt,value
2022-11-22T00:00:10.393Z,966.14
2022-11-22T00:12:10.871Z,965.91
2022-11-22T00:24:11.282Z,965.81
2022-11-22T00:36:11.718Z,965.83
2022-11-22T00:48:12.167Z,965.54
2022-11-22T01:00:12.654Z,965.56
2022-11-22T01:12:13.054Z,965.60
2022-11-22T01:24:13.532Z,965.36
2022-11-22T01:36:13.996Z,965.29
2022-11-22T01:48:14.440Z,965.40
2022-11-22T02:00:14.854Z,965.38
2022-11-22T02:12:15.354Z,965.32
2022-11-22T02:24:15.747Z,965.13
2022-11-22T02:36:16.213Z,964.91
2022-11-22T02:48:16.716Z,964.81
2022-11-22T03:00:17.160Z,964.68
2022-11-22T03:12:17.552Z,964.41
2022-11-22T03:24:18.063Z,964.26
2022-11-22T03:36:18.510Z,964.13
2022-11-22T03:48:18.944Z,963.93
2022-11-22T04:00:19.418Z,963.99
2022-11-22T04:12:19.944Z,963.85
2022-11-22T04:24:20.312Z,963.83
2022-11-22T04:36:20.738Z,963.79
2022-11-22T04:48:21.174Z,963.79
2022-11-22T05:00:21.674Z,963.97
2022-11-22T05:12:22.092Z,963.90
2022-11-22T05:24:22.567Z,963.88
2022-11-22T05:36:23.015Z,963.92
2022-11-22T05:48:23.524Z,964.05
2022-11-22T06:00:23.941Z,963.87
2022-11-22T06:12:24.342Z,964.03
2022-11-22T06:24:24.826Z,964.13
2022-11-22T06:36:25.313Z,964.09
2022-11-22T06:48:25.711Z,964.27
2022-11-22T07:00:26.152Z,964.15
2022-11-22T07:12:26.634Z,964.19
2022-11-22T07:24:27.081Z,964.23
2022-11-22T07:36:27.543Z,964.25
2022-11-22T07:48:27.969Z,964.31
2022-11-22T08:00:28.423Z,964.24
2022-11-22T08:12:28.912Z,964.37
2022-11-22T08:24:29.330Z,964.40
2022-11-22T08:36:29.779Z,964.48
2022-11-22T08:48:30.269Z,964.51
2022-11-22T09:00:33.582Z,964.61
2022-11-22T09:12:31.156Z,964.63
2022-11-22T09:24:31.588Z,964.55
2022-11-22T09:36:32.050Z,964.52
2022-11-22T09:48:32.551Z,964.40
2022-11-22T10:00:32.957Z,964.41
2022-11-22T10:12:33.382Z,964.16
2022-11-22T10:24:33.853Z,963.95
2022-11-22T10:36:34.313Z,963.76
2022-11-22T10:48:34.756Z,963.53
2022-11-22T11:00:35.228Z,963.47
2022-11-22T11:12:35.683Z,963.38
2022-11-22T11:24:36.120Z,963.33
2022-11-22T11:36:36.533Z,963.34
2022-11-22T11:48:37.022Z,963.41
2022-11-22T12:00:37.471Z,963.61
2022-11-22T12:12:37.946Z,963.43
2022-11-22T12:24:52.586Z,963.57
2022-11-22T12:36:38.849Z,963.63
2022-11-22T12:48:39.270Z,963.87
2022-11-22T13:00:39.779Z,963.99
2022-11-22T13:12:40.187Z,963.84
2022-11-22T13:24:40.622Z,963.92
2022-11-22T13:36:41.119Z,963.91
2022-11-22T13:48:41.578Z,963.93
2022-11-22T14:00:42.057Z,963.94
2022-11-22T14:12:42.488Z,963.90
2022-11-22T14:24:42.887Z,964.03
2022-11-22T14:36:43.336Z,963.97
2022-11-22T14:48:43.781Z,964.19
2022-11-22T15:00:44.253Z,964.37
2022-11-22T15:12:44.762Z,964.39
2022-11-22T16:00:46.567Z,964.51
2022-11-22T16:12:46.995Z,964.46
2022-11-22T16:24:47.443Z,964.34
2022-11-22T16:36:47.890Z,964.29
2022-11-22T16:48:48.337Z,964.29
2022-11-22T17:00:48.827Z,964.32
2022-11-22T17:12:49.228Z,964.44
2022-11-22T17:24:49.661Z,964.40
2022-11-22T17:36:50.118Z,964.47
2022-11-22T17:48:50.624Z,964.52
2022-11-22T18:00:51.091Z,964.36
2022-11-22T18:13:13.455Z,964.33
2022-11-22T18:24:51.990Z,964.37
2022-11-22T18:36:55.790Z,964.28
2022-11-22T18:48:52.849Z,964.31
2022-11-22T19:00:53.329Z,964.27
2022-11-22T19:12:53.730Z,964.32
2022-11-22T19:24:54.208Z,964.40
2022-11-22T19:36:54.648Z,964.56
2022-11-22T19:48:55.118Z,964.54
2022-11-22T20:00:55.571Z,964.60
2022-11-22T20:12:56.037Z,964.52
2022-11-22T20:24:56.429Z,964.57
2022-11-22T20:36:56.863Z,964.50
2022-11-22T20:48:59.111Z,964.57
2022-11-22T21:00:57.929Z,964.63
2022-11-22T21:12:58.253Z,964.67
2022-11-22T21:24:58.722Z,964.67
2022-11-22T21:36:59.176Z,964.76
2022-11-22T21:48:59.686Z,964.77
2022-11-22T22:01:00.165Z,964.90
2022-11-22T22:13:00.510Z,964.85
2022-11-22T22:25:00.993Z,964.94
2022-11-22T22:37:01.483Z,964.95
2022-11-22T22:49:01.923Z,964.91
2022-11-22T23:01:02.339Z,964.79
2022-11-22T23:13:02.830Z,964.92
2022-11-22T23:25:03.263Z,964.76
2022-11-22T23:37:03.738Z,964.68
2022-11-22T23:49:04.188Z,964.67
